createdAt,value
2022-10-20T00:02:21.704Z,18.35
2022-10-20T00:04:50.375Z,17.48
2022-10-20T00:07:18.248Z,20.33
2022-10-20T00:09:45.892Z,17.20
2022-10-20T00:12:13.655Z,19.80
2022-10-20T00:14:41.309Z,20.20
2022-10-20T00:17:09.127Z,19.92
2022-10-20T00:19:36.723Z,20.23
2022-10-20T00:22:04.674Z,20.67
2022-10-20T00:24:32.268Z,20.05
2022-10-20T00:27:00.002Z,19.27
2022-10-20T00:29:28.304Z,20.63
2022-10-20T00:31:56.122Z,19.45
2022-10-20T00:34:25.008Z,21.05
2022-10-20T00:36:52.730Z,19.77
2022-10-20T00:39:22.009Z,20.10
2022-10-20T00:42:12.679Z,17.27
2022-10-20T00:44:48.591Z,22.02
2022-10-20T00:47:34.369Z,20.95
2022-10-20T00:50:16.883Z,21.10
2022-10-20T00:52:45.157Z,18.10
2022-10-20T00:55:14.616Z,19.13
2022-10-20T00:57:43.551Z,19.05
2022-10-20T01:00:11.567Z,22.95
2022-10-20T01:02:39.309Z,31.35
2022-10-20T01:05:07.306Z,22.92
2022-10-20T01:07:35.208Z,18.50
2022-10-20T01:10:04.541Z,19.13
2022-10-20T01:12:44.350Z,20.65
2022-10-20T01:15:12.100Z,21.45
2022-10-20T01:17:58.102Z,20.23
2022-10-20T01:20:40.597Z,21.38
2022-10-20T01:23:11.155Z,21.57
2022-10-20T01:25:41.536Z,21.90
2022-10-20T01:28:16.240Z,21.13
2022-10-20T01:30:48.609Z,22.20
2022-10-20T01:33:34.900Z,19.93
2022-10-20T01:36:08.767Z,18.43
2022-10-20T01:38:36.580Z,19.73
2022-10-20T01:41:10.549Z,20.43
2022-10-20T01:43:39.713Z,18.37
2022-10-20T01:46:08.554Z,17.90
2022-10-20T01:48:38.084Z,19.10
2022-10-20T01:51:05.841Z,17.00
2022-10-20T01:53:33.610Z,19.67
2022-10-20T01:56:02.247Z,19.53
2022-10-20T01:58:29.981Z,17.83
2022-10-20T02:01:05.845Z,19.30
2022-10-20T02:03:42.890Z,19.27
2022-10-20T02:06:25.497Z,18.10
2022-10-20T02:08:54.989Z,17.90
2022-10-20T02:11:22.774Z,16.80
2022-10-20T02:13:51.801Z,18.20
2022-10-20T02:16:40.178Z,15.80
2022-10-20T02:19:08.821Z,17.70
2022-10-20T02:21:37.189Z,16.63
2022-10-20T02:24:06.374Z,17.45
2022-10-20T02:26:34.874Z,17.38
2022-10-20T02:29:05.532Z,18.98
2022-10-20T02:31:33.366Z,25.73
2022-10-20T02:34:01.169Z,17.80
2022-10-20T02:36:30.243Z,21.40
2022-10-20T02:38:57.848Z,19.67
2022-10-20T02:41:26.708Z,17.70
2022-10-20T02:43:54.235Z,17.65
2022-10-20T02:46:22.165Z,19.65
2022-10-20T02:48:49.888Z,18.15
2022-10-20T02:51:17.692Z,19.73
2022-10-20T02:53:45.518Z,19.17
2022-10-20T02:56:13.437Z,17.90
2022-10-20T02:58:41.093Z,18.48
2022-10-20T03:01:09.237Z,16.48
2022-10-20T03:03:36.764Z,17.42
2022-10-20T03:06:08.282Z,15.73
2022-10-20T03:08:35.822Z,15.82
2022-10-20T03:11:04.067Z,15.23
2022-10-20T03:13:32.019Z,16.67
2022-10-20T03:15:59.992Z,17.00
2022-10-20T03:18:27.624Z,15.50
2022-10-20T03:20:55.622Z,18.77
2022-10-20T03:23:23.227Z,17.90
2022-10-20T03:25:51.223Z,21.48
2022-10-20T03:28:19.064Z,25.88
2022-10-20T03:30:47.145Z,21.55
2022-10-20T03:33:14.860Z,19.00
2022-10-20T03:35:42.665Z,19.13
2022-10-20T03:38:10.197Z,19.83
2022-10-20T03:40:38.137Z,18.83
2022-10-20T03:43:05.736Z,16.75
2022-10-20T03:45:33.586Z,19.92
2022-10-20T03:48:01.150Z,20.13
2022-10-20T03:50:29.355Z,51.58
2022-10-20T03:52:56.911Z,90.43
2022-10-20T03:55:24.707Z,25.80
2022-10-20T03:57:52.249Z,22.73
2022-10-20T04:00:20.568Z,25.60
2022-10-20T04:02:48.221Z,31.67
2022-10-20T04:05:17.272Z,140.98
2022-10-20T04:07:45.258Z,28.93
2022-10-20T04:10:13.830Z,72.97
2022-10-20T04:12:41.459Z,27.10
2022-10-20T04:15:09.737Z,29.83
2022-10-20T04:17:37.678Z,27.13
2022-10-20T04:20:06.186Z,26.70
2022-10-20T04:22:34.202Z,27.67
2022-10-20T04:25:02.906Z,24.77
2022-10-20T04:27:30.680Z,26.57
2022-10-20T04:29:58.527Z,26.07
2022-10-20T04:32:26.171Z,26.00
2022-10-20T04:34:54.040Z,26.63
2022-10-20T04:37:21.634Z,26.57
2022-10-20T04:39:51.142Z,29.30
2022-10-20T04:42:19.259Z,29.83
2022-10-20T04:44:47.201Z,33.00
2022-10-20T04:47:14.799Z,62.23
2022-10-20T04:49:42.660Z,38.70
2022-10-20T04:52:10.359Z,31.53
2022-10-20T04:54:57.479Z,24.63
2022-10-20T04:57:25.061Z,22.50
2022-10-20T04:59:53.115Z,25.77
2022-10-20T05:02:20.715Z,27.10
2022-10-20T05:04:48.688Z,29.80
2022-10-20T05:07:16.280Z,26.00
2022-10-20T05:09:44.046Z,25.50
2022-10-20T05:12:11.673Z,25.37
2022-10-20T05:14:59.347Z,25.80
2022-10-20T05:17:30.691Z,24.67
2022-10-20T05:19:58.529Z,27.27
2022-10-20T05:22:26.129Z,21.43
2022-10-20T05:24:53.910Z,22.80
2022-10-20T05:27:21.461Z,26.00
2022-10-20T05:29:49.404Z,31.37
2022-10-20T05:32:17.055Z,25.30
2022-10-20T05:34:44.810Z,25.03
2022-10-20T05:37:13.043Z,22.00
2022-10-20T05:40:00.627Z,20.98
2022-10-20T05:42:28.260Z,22.63
2022-10-20T05:44:56.328Z,29.88
2022-10-20T05:47:23.867Z,25.10
2022-10-20T05:49:51.714Z,21.88
2022-10-20T05:52:19.341Z,17.88
2022-10-20T05:54:47.204Z,18.60
2022-10-20T05:57:14.741Z,16.50
2022-10-20T05:59:43.892Z,19.20
2022-10-20T06:02:12.359Z,18.23
2022-10-20T06:04:40.295Z,16.70
2022-10-20T06:07:10.072Z,15.65
2022-10-20T06:09:41.067Z,14.65
2022-10-20T06:12:10.355Z,14.70
2022-10-20T06:14:38.416Z,15.35
2022-10-20T06:17:07.356Z,14.30
2022-10-20T06:19:35.111Z,14.57
2022-10-20T06:22:05.982Z,14.27
2022-10-20T06:24:35.143Z,13.05
2022-10-20T06:27:02.764Z,15.45
2022-10-20T06:29:30.564Z,17.50
2022-10-20T06:31:58.197Z,15.40
2022-10-20T06:34:26.496Z,14.75
2022-10-20T06:36:54.151Z,14.23
2022-10-20T06:39:23.015Z,15.68
2022-10-20T06:41:57.889Z,15.30
2022-10-20T06:44:32.439Z,16.30
2022-10-20T06:47:00.030Z,15.60
2022-10-20T06:49:27.922Z,18.27
2022-10-20T06:51:55.643Z,16.83
2022-10-20T06:54:23.468Z,17.27
2022-10-20T06:56:51.195Z,16.50
2022-10-20T06:59:19.498Z,22.05
2022-10-20T07:01:47.293Z,15.05
2022-10-20T07:04:15.998Z,14.43
2022-10-20T07:06:45.108Z,13.95
2022-10-20T07:09:14.557Z,13.45
2022-10-20T07:11:42.495Z,12.48
2022-10-20T07:14:10.834Z,13.10
2022-10-20T07:16:38.533Z,22.60
2022-10-20T07:19:06.344Z,49.22
2022-10-20T07:21:37.397Z,12.95
2022-10-20T07:24:07.532Z,13.75
2022-10-20T07:26:36.298Z,12.65
2022-10-20T07:29:04.664Z,13.70
2022-10-20T07:31:33.853Z,12.10
2022-10-20T07:34:12.915Z,13.05
2022-10-20T07:36:43.294Z,12.43
2022-10-20T07:39:11.744Z,12.27
2022-10-20T07:41:40.120Z,11.13
2022-10-20T07:44:08.259Z,15.10
2022-10-20T07:46:36.491Z,11.88
2022-10-20T07:49:31.209Z,13.45
2022-10-20T07:51:52.235Z,11.05
2022-10-20T07:54:20.057Z,11.50
2022-10-20T07:56:47.815Z,11.18
2022-10-20T07:59:15.712Z,11.13
2022-10-20T08:01:44.113Z,11.10
2022-10-20T08:04:12.426Z,10.82
2022-10-20T08:06:40.118Z,11.00
2022-10-20T08:09:08.483Z,11.73
2022-10-20T08:11:36.477Z,9.90
2022-10-20T08:14:04.447Z,10.63
2022-10-20T08:16:32.148Z,11.30
2022-10-20T08:19:17.488Z,11.23
2022-10-20T08:21:45.282Z,10.32
2022-10-20T08:24:13.624Z,11.75
2022-10-20T08:26:41.339Z,9.63
2022-10-20T08:29:09.327Z,10.55
2022-10-20T08:31:36.962Z,9.90
2022-10-20T08:34:05.017Z,9.40
2022-10-20T08:36:32.861Z,9.70
2022-10-20T08:39:03.619Z,8.90
2022-10-20T08:41:55.334Z,9.77
2022-10-20T08:44:27.894Z,9.38
2022-10-20T08:46:55.687Z,10.20
2022-10-20T08:49:28.423Z,10.05
2022-10-20T08:51:56.001Z,8.60
2022-10-20T08:54:23.732Z,8.88
2022-10-20T08:56:51.431Z,8.60
2022-10-20T08:59:28.211Z,8.50
2022-10-20T09:01:57.516Z,7.07
2022-10-20T09:04:33.373Z,6.82
2022-10-20T09:07:02.328Z,7.03
2022-10-20T09:09:31.514Z,6.25
2022-10-20T09:12:06.309Z,6.75
2022-10-20T09:14:35.413Z,6.20
2022-10-20T09:17:03.241Z,7.18
2022-10-20T09:19:31.239Z,6.47
2022-10-20T09:22:03.432Z,6.45
2022-10-20T09:24:31.672Z,6.60
2022-10-20T09:27:17.505Z,6.40
2022-10-20T09:29:45.549Z,5.75
2022-10-20T09:32:45.023Z,5.10
2022-10-20T09:35:25.835Z,5.15
2022-10-20T09:37:56.025Z,5.32
2022-10-20T09:40:24.396Z,4.95
2022-10-20T09:42:54.643Z,5.25
2022-10-20T09:45:23.919Z,5.13
2022-10-20T09:47:53.041Z,4.72
2022-10-20T09:50:24.033Z,5.53
2022-10-20T09:52:51.634Z,5.03
2022-10-20T09:55:28.076Z,5.13
2022-10-20T09:57:56.366Z,5.07
2022-10-20T10:00:36.764Z,4.90
2022-10-20T10:03:19.940Z,4.88
2022-10-20T10:05:49.911Z,4.38
2022-10-20T10:08:17.883Z,4.30
2022-10-20T10:10:47.279Z,4.53
2022-10-20T10:13:26.493Z,4.40
2022-10-20T10:16:20.495Z,4.22
2022-10-20T10:19:00.655Z,4.18
2022-10-20T10:21:30.136Z,3.90
2022-10-20T10:24:00.087Z,4.57
2022-10-20T10:26:48.167Z,4.53
2022-10-20T10:29:35.151Z,3.72
2022-10-20T10:32:17.037Z,4.03
2022-10-20T10:34:44.543Z,4.97
2022-10-20T10:37:14.016Z,4.95
2022-10-20T10:39:42.037Z,4.93
2022-10-20T10:42:09.926Z,5.05
2022-10-20T10:45:02.730Z,5.45
2022-10-20T10:47:49.340Z,7.28
2022-10-20T10:50:42.427Z,7.38
2022-10-20T10:53:21.375Z,5.82
2022-10-20T10:56:04.160Z,8.18
2022-10-20T10:58:31.919Z,8.10
2022-10-20T11:00:59.550Z,8.45
2022-10-20T11:03:39.890Z,7.97
2022-10-20T11:06:23.226Z,8.25
2022-10-20T11:09:09.303Z,8.55
2022-10-20T11:11:37.158Z,8.50
2022-10-20T11:14:13.772Z,8.00
2022-10-20T11:16:48.795Z,7.85
2022-10-20T11:19:25.426Z,9.27
2022-10-20T11:21:56.122Z,7.82
2022-10-20T11:24:32.548Z,7.53
2022-10-20T11:27:10.560Z,6.93
2022-10-20T11:29:41.266Z,7.95
2022-10-20T11:32:15.205Z,7.13
2022-10-20T11:34:45.578Z,7.07
2022-10-20T11:37:18.770Z,6.22
2022-10-20T11:39:49.582Z,5.53
2022-10-20T11:42:32.982Z,5.70
2022-10-20T11:45:02.051Z,5.78
2022-10-20T11:47:42.716Z,5.85
2022-10-20T11:50:11.960Z,5.20
2022-10-20T11:52:45.978Z,4.93
2022-10-20T11:55:22.435Z,6.70
2022-10-20T11:57:57.583Z,5.25
2022-10-20T12:00:38.878Z,5.38
2022-10-20T12:03:25.234Z,5.45
2022-10-20T12:06:04.188Z,4.80
2022-10-20T12:08:53.553Z,5.07
2022-10-20T12:11:39.737Z,4.90
2022-10-20T12:14:19.882Z,5.05
2022-10-20T12:16:53.720Z,4.20
2022-10-20T12:19:32.450Z,4.30
2022-10-20T12:22:04.999Z,5.05
2022-10-20T12:24:35.825Z,4.90
2022-10-20T12:27:09.550Z,4.63
2022-10-20T12:29:38.098Z,4.47
2022-10-20T12:32:24.539Z,4.78
2022-10-20T12:34:58.484Z,4.72
2022-10-20T12:37:27.849Z,4.57
2022-10-20T12:39:56.783Z,4.93
2022-10-20T12:42:29.111Z,4.97
2022-10-20T12:45:03.557Z,4.50
2022-10-20T12:47:32.822Z,4.93
2022-10-20T12:50:00.610Z,4.95
2022-10-20T12:52:31.121Z,5.00
2022-10-20T12:55:14.676Z,4.57
2022-10-20T12:57:42.743Z,5.22
2022-10-20T13:00:23.358Z,5.53
2022-10-20T13:02:52.121Z,4.82
2022-10-20T13:05:19.861Z,5.07
2022-10-20T13:07:52.465Z,4.50
2022-10-20T13:10:31.780Z,4.25
2022-10-20T13:13:02.503Z,4.70
2022-10-20T13:15:39.576Z,5.10
2022-10-20T13:18:19.929Z,5.30
2022-10-20T13:20:56.272Z,4.47
2022-10-20T13:23:30.616Z,6.25
2022-10-20T13:26:17.350Z,4.72
2022-10-20T13:28:46.138Z,4.55
2022-10-20T13:31:23.898Z,3.50
2022-10-20T13:34:06.031Z,3.78
2022-10-20T13:36:46.868Z,3.83
2022-10-20T13:39:21.394Z,4.07
2022-10-20T13:41:49.260Z,4.30
2022-10-20T13:44:31.595Z,3.40
2022-10-20T13:47:05.907Z,3.28
2022-10-20T13:49:33.541Z,3.10
2022-10-20T13:52:05.969Z,3.30
2022-10-20T13:54:35.854Z,3.67
2022-10-20T13:57:04.357Z,2.97
2022-10-20T13:59:32.057Z,4.82
2022-10-20T14:02:01.418Z,3.90
2022-10-20T14:04:33.569Z,5.43
2022-10-20T14:07:13.311Z,3.45
2022-10-20T14:09:45.303Z,4.75
2022-10-20T14:12:19.318Z,3.60
2022-10-20T14:14:46.968Z,4.18
2022-10-20T14:17:22.941Z,3.10
2022-10-20T14:19:50.929Z,3.55
2022-10-20T14:22:25.967Z,4.93
2022-10-20T14:24:55.785Z,4.05
2022-10-20T14:27:26.530Z,3.63
2022-10-20T14:29:54.745Z,5.05
2022-10-20T14:32:23.994Z,4.82
2022-10-20T14:34:54.702Z,4.90
2022-10-20T14:37:29.452Z,5.17
2022-10-20T14:39:57.007Z,4.53
2022-10-20T14:42:26.257Z,4.80
2022-10-20T14:44:56.923Z,5.20
2022-10-20T14:47:25.712Z,4.43
2022-10-20T14:49:55.297Z,4.15
2022-10-20T14:52:24.287Z,5.93
2022-10-20T14:54:52.222Z,4.90
2022-10-20T14:57:20.254Z,4.30
2022-10-20T15:00:04.654Z,4.38
2022-10-20T15:02:42.876Z,9.18
2022-10-20T15:05:29.156Z,5.10
2022-10-20T15:07:56.917Z,5.53
2022-10-20T15:10:25.936Z,4.75
2022-10-20T15:12:55.750Z,3.80
2022-10-20T15:15:28.826Z,3.92
2022-10-20T15:18:05.582Z,4.30
2022-10-20T15:20:33.247Z,5.97
2022-10-20T15:23:02.602Z,6.82
2022-10-20T15:25:31.754Z,7.65
2022-10-20T15:28:00.004Z,7.82
2022-10-20T15:30:28.182Z,7.10
2022-10-20T15:32:56.091Z,6.70
2022-10-20T15:35:24.427Z,7.10
2022-10-20T15:37:53.123Z,8.45
2022-10-20T15:40:21.625Z,13.63
2022-10-20T15:42:49.768Z,14.20
2022-10-20T15:45:19.491Z,16.15
2022-10-20T15:47:47.381Z,16.27
2022-10-20T15:50:15.221Z,14.07
2022-10-20T15:52:43.280Z,14.68
2022-10-20T15:55:22.504Z,16.90
2022-10-20T15:57:50.893Z,20.50
2022-10-20T16:00:38.566Z,26.70
2022-10-20T16:03:06.969Z,30.77
2022-10-20T16:05:35.137Z,21.85
2022-10-20T16:08:03.072Z,17.17
2022-10-20T16:10:30.963Z,16.80
2022-10-20T16:12:58.910Z,23.92
2022-10-20T16:15:30.208Z,38.30
2022-10-20T16:17:59.720Z,22.40
2022-10-20T16:20:27.447Z,36.13
2022-10-20T16:22:55.221Z,41.47
2022-10-20T16:25:23.039Z,46.72
2022-10-20T16:27:50.936Z,45.40
2022-10-20T16:30:18.525Z,38.58
2022-10-20T16:33:07.048Z,33.05
2022-10-20T16:35:35.110Z,40.85
2022-10-20T16:38:03.388Z,47.05
2022-10-20T16:40:31.073Z,51.63
2022-10-20T16:43:00.096Z,54.25
2022-10-20T16:45:27.971Z,61.67
2022-10-20T16:47:55.696Z,53.58
2022-10-20T16:50:23.619Z,57.92
2022-10-20T16:52:51.478Z,69.80
2022-10-20T16:55:19.047Z,53.58
2022-10-20T16:57:46.969Z,58.28
2022-10-20T17:00:15.028Z,53.05
2022-10-20T17:02:44.875Z,52.33
2022-10-20T17:05:12.565Z,56.17
2022-10-20T17:07:40.750Z,60.42
2022-10-20T17:10:08.609Z,56.03
2022-10-20T17:12:36.451Z,33.20
2022-10-20T17:15:04.680Z,33.40
2022-10-20T17:17:32.708Z,47.58
2022-10-20T17:20:00.424Z,34.33
2022-10-20T17:22:28.428Z,37.03
2022-10-20T17:24:55.985Z,42.80
2022-10-20T17:27:23.839Z,47.00
2022-10-20T17:29:51.536Z,51.25
2022-10-20T17:32:19.538Z,48.65
2022-10-20T17:34:47.221Z,50.70
2022-10-20T17:37:15.214Z,49.55
2022-10-20T17:39:42.921Z,64.10
2022-10-20T17:42:10.879Z,45.33
2022-10-20T17:44:38.574Z,42.50
2022-10-20T17:47:06.511Z,34.10
2022-10-20T17:49:34.389Z,52.50
2022-10-20T17:52:02.611Z,32.33
2022-10-20T17:54:30.229Z,34.53
2022-10-20T17:56:58.206Z,48.78
2022-10-20T17:59:25.990Z,45.30
2022-10-20T18:01:54.089Z,39.45
2022-10-20T18:04:21.903Z,34.75
2022-10-20T18:06:49.816Z,42.55
2022-10-20T18:09:18.262Z,36.45
2022-10-20T18:11:48.086Z,50.17
2022-10-20T18:14:16.999Z,55.08
2022-10-20T18:16:45.205Z,42.75
2022-10-20T18:19:14.781Z,58.83
2022-10-20T18:21:42.965Z,65.82
2022-10-20T18:24:12.489Z,57.05
2022-10-20T18:26:40.840Z,69.35
2022-10-20T18:29:09.548Z,37.17
2022-10-20T18:31:37.970Z,37.53
2022-10-20T18:34:07.416Z,59.65
2022-10-20T18:36:39.245Z,86.70
2022-10-20T18:39:10.237Z,141.85
2022-10-20T18:41:39.294Z,43.90
2022-10-20T18:44:10.000Z,64.60
2022-10-20T18:46:39.268Z,57.88
2022-10-20T18:49:07.342Z,52.73
2022-10-20T18:51:36.056Z,33.38
2022-10-20T18:54:05.033Z,29.60
2022-10-20T18:56:32.971Z,31.87
2022-10-20T18:59:02.689Z,35.85
2022-10-20T19:01:32.209Z,43.20
2022-10-20T19:04:00.947Z,41.73
2022-10-20T19:06:32.820Z,48.43
2022-10-20T19:09:01.768Z,45.00
2022-10-20T19:11:31.401Z,40.30
2022-10-20T19:13:59.748Z,105.50
2022-10-20T19:16:29.363Z,39.77
2022-10-20T19:18:59.717Z,38.13
2022-10-20T19:21:28.495Z,63.63
2022-10-20T19:24:01.326Z,88.73
2022-10-20T19:26:31.212Z,53.10
2022-10-20T19:29:00.744Z,60.27
2022-10-20T19:31:28.660Z,55.33
2022-10-20T19:33:58.745Z,43.77
2022-10-20T19:36:27.964Z,67.13
2022-10-20T19:38:55.993Z,50.23
2022-10-20T19:41:24.284Z,44.60
2022-10-20T19:43:52.071Z,48.17
2022-10-20T19:46:21.236Z,80.90
2022-10-20T19:48:49.357Z,92.50
2022-10-20T19:51:18.110Z,50.43
2022-10-20T19:53:45.907Z,145.67
2022-10-20T19:56:13.787Z,59.67
2022-10-20T19:58:45.615Z,59.20
2022-10-20T20:01:15.287Z,138.77
2022-10-20T20:03:44.370Z,86.27
2022-10-20T20:06:16.915Z,42.37
2022-10-20T20:08:45.478Z,32.97
2022-10-20T20:11:30.770Z,58.40
2022-10-20T20:13:59.869Z,42.90
2022-10-20T20:16:28.878Z,48.10
2022-10-20T20:18:56.705Z,30.63
2022-10-20T20:21:24.699Z,36.07
2022-10-20T20:24:00.689Z,37.63
2022-10-20T20:26:30.274Z,40.80
2022-10-20T20:28:58.162Z,55.33
2022-10-20T20:31:27.597Z,37.90
2022-10-20T20:33:56.918Z,41.27
2022-10-20T20:36:28.809Z,43.67
2022-10-20T20:38:58.130Z,33.22
2022-10-20T20:41:28.345Z,30.83
2022-10-20T20:43:56.018Z,28.43
2022-10-20T20:46:24.819Z,29.67
2022-10-20T20:48:52.430Z,31.73
2022-10-20T20:51:20.618Z,36.87
2022-10-20T20:53:48.171Z,49.37
2022-10-20T20:56:16.880Z,29.67
2022-10-20T20:58:47.498Z,32.83
2022-10-20T21:01:19.684Z,38.43
2022-10-20T21:03:47.698Z,34.03
2022-10-20T21:06:16.574Z,29.57
2022-10-20T21:08:46.306Z,28.63
2022-10-20T21:11:18.562Z,30.50
2022-10-20T21:16:19.712Z,38.70
2022-10-20T21:21:16.162Z,31.77
2022-10-20T21:23:43.872Z,36.70
2022-10-20T21:26:12.724Z,94.10
2022-10-20T21:28:40.786Z,35.00
2022-10-20T21:31:09.839Z,44.70
2022-10-20T21:33:38.114Z,66.43
2022-10-20T21:36:07.422Z,46.40
2022-10-20T21:38:35.387Z,45.77
2022-10-20T21:41:04.541Z,41.93
2022-10-20T21:43:32.659Z,49.50
2022-10-20T21:46:14.019Z,36.23
2022-10-20T21:48:42.118Z,57.97
2022-10-20T21:51:17.302Z,39.80
2022-10-20T21:53:44.855Z,44.93
2022-10-20T21:56:13.193Z,29.93
2022-10-20T21:58:40.835Z,31.43
2022-10-20T22:01:09.447Z,18.47
2022-10-20T22:03:37.111Z,22.77
2022-10-20T22:06:05.119Z,23.40
2022-10-20T22:08:35.518Z,24.77
2022-10-20T22:11:06.883Z,28.23
2022-10-20T22:13:34.814Z,29.77
2022-10-20T22:16:02.885Z,27.03
2022-10-20T22:18:30.488Z,25.87
2022-10-20T22:21:02.450Z,47.53
2022-10-20T22:23:30.071Z,34.33
2022-10-20T22:25:57.920Z,43.73
2022-10-20T22:28:25.871Z,30.17
2022-10-20T22:30:53.931Z,23.50
2022-10-20T22:33:21.878Z,23.67
2022-10-20T22:35:49.801Z,24.57
2022-10-20T22:38:17.512Z,24.97
2022-10-20T22:40:45.278Z,30.13
2022-10-20T22:43:12.943Z,25.87
2022-10-20T22:45:40.704Z,22.27
2022-10-20T22:48:09.401Z,26.27
2022-10-20T22:50:37.201Z,25.90
2022-10-20T22:53:05.685Z,36.37
2022-10-20T22:55:33.402Z,44.30
2022-10-20T22:58:01.275Z,43.87
2022-10-20T23:00:29.196Z,43.53
2022-10-20T23:02:57.316Z,27.23
2022-10-20T23:05:25.261Z,35.60
2022-10-20T23:07:53.006Z,39.27
2022-10-20T23:10:21.089Z,40.77
2022-10-20T23:12:48.745Z,28.67
2022-10-20T23:15:16.494Z,33.57
2022-10-20T23:17:44.494Z,31.03
2022-10-20T23:20:12.331Z,27.67
2022-10-20T23:22:39.914Z,32.33
2022-10-20T23:25:07.854Z,28.47
2022-10-20T23:27:36.066Z,28.67
2022-10-20T23:30:04.216Z,22.57
2022-10-20T23:32:32.015Z,35.87
2022-10-20T23:34:59.742Z,26.23
2022-10-20T23:37:27.368Z,24.57
2022-10-20T23:39:55.169Z,29.10
2022-10-20T23:42:22.812Z,25.97
2022-10-20T23:44:50.533Z,22.30
2022-10-20T23:47:18.100Z,22.83
2022-10-20T23:49:45.921Z,23.97
2022-10-20T23:52:13.541Z,19.57
2022-10-20T23:54:41.284Z,21.30
2022-10-20T23:57:08.860Z,22.60
2022-10-20T23:59:36.773Z,17.03
